Time;durP1;ratioP1;P1;durP2;ratioP2;P2;SDS_P1;SDS_P2;PMS_P1;PMS_P2;Temp;Humidity;BMP_temperature;BMP_pressure;BME280_temperature;BME280_humidity;BME280_pressure;Samples;Min_cycle;Max_cycle;Signal;HPM_P1;HPM_P2
2023/08/21 00:00:58;;;;;;;;;;;;;;;23.97;57.51;101995.63;4151415;28;19932;-66
2023/08/21 00:03:00;;;;;;;;;;;;;;;23.96;57.71;101993.91;4150234;28;19972;-65
2023/08/21 00:05:01;;;;;;;;;;;;;;;23.97;57.78;101986.72;4149836;28;20016;-65
2023/08/21 00:07:03;;;;;;;;;;;;;;;23.95;57.58;101994.03;4151460;28;19955;-65
2023/08/21 00:09:04;;;;;;;;;;;;;;;23.95;57.83;101991.34;4151377;28;20404;-65
2023/08/21 00:11:06;;;;;;;;;;;;;;;23.92;57.71;101982.50;4150937;28;19925;-65
2023/08/21 00:13:07;;;;;;;;;;;;;;;23.92;57.84;101985.19;4150591;28;19933;-65
2023/08/21 00:15:09;;;;;;;;;;;;;;;23.92;57.95;101982.50;4151147;28;19961;-64
2023/08/21 00:17:11;;;;;;;;;;;;;;;23.91;57.50;101983.47;4150833;28;19930;-65
2023/08/21 00:19:12;;;;;;;;;;;;;;;23.91;57.76;101991.53;4151067;28;20391;-65
2023/08/21 00:21:17;;;;;;;;;;;;;;;23.91;57.87;101985.28;4151041;28;19957;-65
2023/08/21 00:23:18;;;;;;;;;;;;;;;23.90;57.81;101978.19;4150140;28;20175;-65
2023/08/21 00:25:21;;;;;;;;;;;;;;;23.90;57.87;101980.88;4150964;28;19972;-65
2023/08/21 00:27:22;;;;;;;;;;;;;;;23.89;57.59;101980.03;4150951;28;19929;-65
2023/08/21 00:29:24;;;;;;;;;;;;;;;23.89;57.68;101979.16;4151249;28;19969;-65
2023/08/21 00:31:25;;;;;;;;;;;;;;;23.87;57.77;101981.97;4150990;28;20009;-65
2023/08/21 00:33:27;;;;;;;;;;;;;;;23.87;57.95;101973.06;4149848;28;20397;-65
2023/08/21 00:35:28;;;;;;;;;;;;;;;23.86;57.74;101972.19;4150936;28;19926;-65
2023/08/21 00:37:30;;;;;;;;;;;;;;;23.86;57.73;101969.50;4150875;28;20037;-66
2023/08/21 00:39:31;;;;;;;;;;;;;;;23.85;57.80;101973.19;4150704;28;19976;-65
2023/08/21 00:41:34;;;;;;;;;;;;;;;23.84;57.59;101970.56;4151089;28;20060;-65
2023/08/21 00:43:35;;;;;;;;;;;;;;;23.85;57.80;101975.00;4150020;28;20391;-66
2023/08/21 00:45:39;;;;;;;;;;;;;;;23.83;57.79;101977.78;4150564;28;19968;-65
2023/08/21 00:47:42;;;;;;;;;;;;;;;23.83;57.92;101975.09;4150318;28;19932;-65
2023/08/21 00:49:44;;;;;;;;;;;;;;;23.83;57.80;101976.91;4150793;28;19956;-65
2023/08/21 00:51:46;;;;;;;;;;;;;;;23.82;57.75;101975.22;4150640;28;19932;-66
2023/08/21 00:53:47;;;;;;;;;;;;;;;23.82;57.92;101972.53;4148670;28;19972;-65
2023/08/21 00:55:49;;;;;;;;;;;;;;;23.82;57.63;101970.69;4150731;28;19945;-65
2023/08/21 00:57:51;;;;;;;;;;;;;;;23.82;57.86;101972.53;4150559;28;20379;-65
2023/08/21 00:59:53;;;;;;;;;;;;;;;23.81;57.99;101973.50;4150508;28;19926;-65
2023/08/21 01:01:55;;;;;;;;;;;;;;;23.79;57.64;101973.59;4150131;28;19964;-64
2023/08/21 01:03:56;;;;;;;;;;;;;;;23.79;57.71;101972.75;4149757;28;19925;-65
2023/08/21 01:05:58;;;;;;;;;;;;;;;23.77;57.71;101971.03;4149278;28;19937;-65
2023/08/21 01:08:04;;;;;;;;;;;;;;;23.77;57.91;101978.25;4149220;28;19925;-65
2023/08/21 01:10:20;;;;;;;;;;;;;;;23.76;57.90;101980.06;4150479;28;19937;-65
2023/08/21 01:12:34;;;;;;;;;;;;;;;23.76;57.67;101974.69;4150117;28;19930;-65
2023/08/21 01:14:51;;;;;;;;;;;;;;;23.75;57.83;101975.63;4149637;28;20306;-65
2023/08/21 01:16:55;;;;;;;;;;;;;;;23.74;58.01;101976.63;4150123;28;20391;-65
2023/08/21 01:18:59;;;;;;;;;;;;;;;23.74;57.76;101979.31;4149061;28;19937;-65
2023/08/21 01:21:03;;;;;;;;;;;;;;;23.75;57.83;101985.53;4150501;28;19926;-65
2023/08/21 01:23:07;;;;;;;;;;;;;;;23.73;57.88;101979.41;4149510;28;19926;-65
2023/08/21 01:25:09;;;;;;;;;;;;;;;23.73;57.84;101982.97;4150018;28;20284;-66
2023/08/21 01:27:12;;;;;;;;;;;;;;;23.73;57.98;101988.34;4150138;28;20310;-65
2023/08/21 01:29:13;;;;;;;;;;;;;;;23.73;58.01;101984.78;4149022;28;19949;-65
2023/08/21 01:31:17;;;;;;;;;;;;;;;23.73;57.71;101991.03;4149993;28;19929;-65
2023/08/21 01:33:19;;;;;;;;;;;;;;;23.73;57.42;101984.78;4149232;28;19968;-65
2023/08/21 01:35:21;;;;;;;;;;;;;;;23.72;57.95;101988.44;4148773;28;19925;-65
2023/08/21 01:37:24;;;;;;;;;;;;;;;23.72;57.98;101981.25;4149795;28;20477;-66
2023/08/21 01:39:25;;;;;;;;;;;;;;;23.72;57.57;101983.06;4149754;28;19925;-66
2023/08/21 01:41:27;;;;;;;;;;;;;;;23.72;57.89;101986.63;4150026;28;19933;-66
2023/08/21 01:43:28;;;;;;;;;;;;;;;23.72;57.73;101988.44;4148861;28;20024;-65
2023/08/21 01:45:30;;;;;;;;;;;;;;;23.70;58.00;101980.50;4149384;28;19976;-65
2023/08/21 01:47:31;;;;;;;;;;;;;;;23.71;57.71;101992.13;4149655;28;19930;-65
2023/08/21 01:49:33;;;;;;;;;;;;;;;23.69;57.65;101992.19;4149785;28;20465;-66
2023/08/21 01:51:34;;;;;;;;;;;;;;;23.70;57.91;101987.69;4149809;28;19929;-65
2023/08/21 01:53:36;;;;;;;;;;;;;;;23.69;58.05;101991.34;4149103;28;19925;-66
2023/08/21 01:55:38;;;;;;;;;;;;;;;23.68;57.83;101992.31;4149765;28;19964;-65
2023/08/21 01:57:39;;;;;;;;;;;;;;;23.68;58.01;101987.81;4148465;28;19925;-65
2023/08/21 01:59:41;;;;;;;;;;;;;;;23.67;57.85;101987.91;4149086;28;20024;-65
2023/08/21 02:01:42;;;;;;;;;;;;;;;23.67;57.96;101990.59;4149613;28;19925;-65
2023/08/21 02:03:44;;;;;;;;;;;;;;;23.66;57.85;101989.75;4148625;28;20319;-65
2023/08/21 02:05:46;;;;;;;;;;;;;;;23.65;58.03;101993.41;4149596;28;19972;-65
2023/08/21 02:07:48;;;;;;;;;;;;;;;23.66;57.64;101992.44;4149629;28;19975;-66
2023/08/21 02:09:49;;;;;;;;;;;;;;;23.65;57.88;101993.41;4149224;28;20024;-65
2023/08/21 02:11:51;;;;;;;;;;;;;;;23.65;57.88;101992.56;4149298;28;19979;-65
2023/08/21 02:13:57;;;;;;;;;;;;;;;23.64;57.89;101988.16;4148344;28;20008;-64
2023/08/21 02:16:03;;;;;;;;;;;;;;;23.64;57.91;101985.47;4149253;28;19963;-65
2023/08/21 02:18:05;;;;;;;;;;;;;;;23.63;57.74;101995.31;4149003;28;20457;-65
2023/08/21 02:20:07;;;;;;;;;;;;;;;23.63;57.88;101989.09;4149245;28;19925;-65
2023/08/21 02:22:08;;;;;;;;;;;;;;;23.63;57.67;101981.06;4149193;28;19933;-66
2023/08/21 02:24:10;;;;;;;;;;;;;;;23.61;57.87;101987.38;4148335;28;20028;-65
2023/08/21 02:26:16;;;;;;;;;;;;;;;23.62;57.71;101980.19;4149269;28;20020;-64
2023/08/21 02:28:18;;;;;;;;;;;;;;;23.60;57.90;101985.66;4148839;28;19937;-65
2023/08/21 02:30:20;;;;;;;;;;;;;;;23.60;57.88;101982.13;4149217;28;19925;-65
2023/08/21 02:32:21;;;;;;;;;;;;;;;23.60;57.91;101985.66;4149106;28;19932;-65
2023/08/21 02:34:23;;;;;;;;;;;;;;;23.59;57.78;101983.94;4148268;28;20120;-65
2023/08/21 02:36:29;;;;;;;;;;;;;;;23.60;57.92;101976.75;4147881;28;20369;-65
2023/08/21 02:38:31;;;;;;;;;;;;;;;23.59;58.13;101983.09;4149123;28;20016;-65
2023/08/21 02:40:32;;;;;;;;;;;;;;;23.58;57.97;101982.22;4149307;28;19929;-65
2023/08/21 02:42:34;;;;;;;;;;;;;;;23.57;57.78;101983.22;4147083;28;19967;-65
2023/08/21 02:44:36;;;;;;;;;;;;;;;23.57;57.86;101985.03;4148225;28;19925;-65
2023/08/21 02:46:38;;;;;;;;;;;;;;;23.56;57.91;101978.81;4149030;28;19969;-65
2023/08/21 02:48:44;;;;;;;;;;;;;;;23.56;57.84;101981.50;4148814;28;20291;-65
2023/08/21 02:50:46;;;;;;;;;;;;;;;23.56;58.07;101985.97;4148994;28;19926;-65
2023/08/21 02:52:47;;;;;;;;;;;;;;;23.54;57.76;101985.25;4148843;28;20346;-66
2023/08/21 02:54:49;;;;;;;;;;;;;;;23.55;57.92;101981.56;4148114;28;19933;-65
2023/08/21 02:56:51;;;;;;;;;;;;;;;23.55;57.92;101992.31;4148523;28;19926;-65
2023/08/21 02:58:52;;;;;;;;;;;;;;;23.53;58.18;101987.06;4148865;28;19926;-65
2023/08/21 03:00:58;;;;;;;;;;;;;;;23.53;57.87;101980.84;4148609;28;19926;-65
2023/08/21 03:03:00;;;;;;;;;;;;;;;23.53;57.92;101980.84;4148397;28;20282;-65
2023/08/21 03:05:02;;;;;;;;;;;;;;;23.52;57.75;101981.81;4148132;28;19930;-65
2023/08/21 03:07:03;;;;;;;;;;;;;;;23.52;58.04;101985.34;4148681;28;20019;-66
2023/08/21 03:09:05;;;;;;;;;;;;;;;23.52;58.06;101989.88;4148716;28;20300;-65
2023/08/21 03:11:06;;;;;;;;;;;;;;;23.52;58.08;101987.19;4148198;28;20302;-65
2023/08/21 03:13:13;;;;;;;;;;;;;;;23.51;57.90;101980.09;4147602;28;19949;-65
2023/08/21 03:15:15;;;;;;;;;;;;;;;23.50;57.82;101978.38;4148185;28;19933;-65
2023/08/21 03:17:16;;;;;;;;;;;;;;;23.49;58.08;101982.88;4148459;28;19925;-65
2023/08/21 03:19:17;;;;;;;;;;;;;;;23.49;57.83;101972.16;4148492;28;19926;-65
2023/08/21 03:21:19;;;;;;;;;;;;;;;23.48;57.95;101975.78;4148375;28;19969;-65
2023/08/21 03:23:25;;;;;;;;;;;;;;;23.49;57.83;101979.31;4147812;28;19931;-64
2023/08/21 03:25:28;;;;;;;;;;;;;;;23.47;58.11;101979.44;4148347;28;20376;-65
2023/08/21 03:27:29;;;;;;;;;;;;;;;23.47;57.90;101979.44;4148420;28;19932;-64
2023/08/21 03:29:31;;;;;;;;;;;;;;;23.46;57.93;101975.03;4147963;28;20347;-65
2023/08/21 03:31:33;;;;;;;;;;;;;;;23.47;57.85;101983.97;4148076;28;19929;-65
2023/08/21 03:33:34;;;;;;;;;;;;;;;23.45;58.05;101987.63;4147622;28;20413;-64
2023/08/21 03:35:36;;;;;;;;;;;;;;;23.44;57.89;101993.94;4148279;28;19925;-65
2023/08/21 03:37:37;;;;;;;;;;;;;;;23.45;58.14;101992.09;4148120;28;19932;-64
2023/08/21 03:39:39;;;;;;;;;;;;;;;23.43;57.93;101984.16;4148073;28;20306;-64
2023/08/21 03:41:40;;;;;;;;;;;;;;;23.43;57.90;101986.84;4147957;28;19948;-64
2023/08/21 03:43:42;;;;;;;;;;;;;;;23.43;57.94;101981.47;4147495;28;19925;-64
2023/08/21 03:45:43;;;;;;;;;;;;;;;23.42;57.78;101976.22;4148242;28;19925;-64
2023/08/21 03:47:50;;;;;;;;;;;;;;;23.43;57.86;101986.00;4148296;28;19925;-65
2023/08/21 03:49:51;;;;;;;;;;;;;;;23.42;58.00;101997.72;4148016;28;20383;-65
2023/08/21 03:51:53;;;;;;;;;;;;;;;23.41;58.01;101999.50;4148287;28;19929;-65
2023/08/21 03:53:55;;;;;;;;;;;;;;;23.41;57.88;101995.97;4147353;28;19949;-65
2023/08/21 03:55:56;;;;;;;;;;;;;;;23.40;57.91;101988.91;4147650;28;19925;-65
2023/08/21 03:57:57;;;;;;;;;;;;;;;23.40;58.06;101988.91;4148128;28;19949;-64
2023/08/21 04:00:05;;;;;;;;;;;;;;;23.40;58.12;101986.22;4148174;28;19929;-65
2023/08/21 04:02:06;;;;;;;;;;;;;;;23.40;57.84;101989.78;4148175;28;20016;-64
2023/08/21 04:04:08;;;;;;;;;;;;;;;23.39;58.09;101981.81;4147173;28;19926;-65
2023/08/21 04:06:09;;;;;;;;;;;;;;;23.40;58.12;101986.22;4147990;28;19926;-65
2023/08/21 04:08:11;;;;;;;;;;;;;;;23.39;58.08;101992.53;4147933;28;19925;-64
2023/08/21 04:10:12;;;;;;;;;;;;;;;23.38;57.72;101990.81;4147694;28;19961;-64
2023/08/21 04:12:14;;;;;;;;;;;;;;;23.37;58.07;101989.13;4148047;28;19925;-64
2023/08/21 04:14:15;;;;;;;;;;;;;;;23.37;57.89;101998.03;4147191;28;20325;-65
2023/08/21 04:16:17;;;;;;;;;;;;;;;23.37;58.12;102000.72;4147789;28;19972;-65
2023/08/21 04:18:19;;;;;;;;;;;;;;;23.37;57.82;101995.34;4148027;28;19929;-65
2023/08/21 04:20:39;;;;;;;;;;;;;;;23.36;58.04;101998.13;4148020;28;20374;-64
2023/08/21 04:22:41;;;;;;;;;;;;;;;23.35;57.75;101999.94;4147965;28;20372;-64
2023/08/21 04:24:44;;;;;;;;;;;;;;;23.35;58.14;102002.63;4146137;28;20297;-64
2023/08/21 04:26:46;;;;;;;;;;;;;;;23.35;57.99;102005.31;4148224;28;19926;-64
2023/08/21 04:28:47;;;;;;;;;;;;;;;23.35;58.14;102010.69;4148181;28;19926;-65
2023/08/21 04:30:49;;;;;;;;;;;;;;;23.34;57.80;102006.28;4147950;28;20358;-64
2023/08/21 04:32:50;;;;;;;;;;;;;;;23.33;57.87;102009.94;4147806;28;20306;-65
2023/08/21 04:34:52;;;;;;;;;;;;;;;23.33;58.14;102007.28;4147185;28;19925;-65
2023/08/21 04:36:53;;;;;;;;;;;;;;;23.33;57.79;102007.28;4147900;28;19937;-64
2023/08/21 04:38:55;;;;;;;;;;;;;;;23.32;58.08;102008.22;4147557;28;20450;-64
2023/08/21 04:41:05;;;;;;;;;;;;;;;23.33;58.14;102012.63;4147931;28;19943;-64
2023/08/21 04:43:07;;;;;;;;;;;;;;;23.32;58.15;102010.03;4150747;28;20376;-65
2023/08/21 04:45:09;;;;;;;;;;;;;;;23.31;58.10;102011.00;4150128;28;19925;-65
2023/08/21 04:47:26;;;;;;;;;;;;;;;23.31;57.83;102017.25;4150123;28;19926;-65
2023/08/21 04:49:28;;;;;;;;;;;;;;;23.30;58.02;102018.22;4150595;28;19979;-64
2023/08/21 04:51:29;;;;;;;;;;;;;;;23.31;57.66;102024.41;4150835;28;19926;-64
2023/08/21 04:53:31;;;;;;;;;;;;;;;23.29;57.73;102022.72;4149867;28;19965;-65
2023/08/21 04:55:33;;;;;;;;;;;;;;;23.30;57.77;102023.56;4150481;28;19976;-65
2023/08/21 04:57:34;;;;;;;;;;;;;;;23.29;58.05;102030.78;4150003;28;19933;-65
2023/08/21 04:59:36;;;;;;;;;;;;;;;23.29;57.93;102027.22;4150531;28;19983;-65
2023/08/21 05:01:37;;;;;;;;;;;;;;;23.29;57.98;102021.84;4150470;28;19968;-65
2023/08/21 05:03:40;;;;;;;;;;;;;;;23.28;57.81;102021.00;4149824;28;19932;-65
2023/08/21 05:05:41;;;;;;;;;;;;;;;23.27;57.75;102019.28;4150261;28;20418;-65
2023/08/21 05:07:43;;;;;;;;;;;;;;;23.28;57.93;102025.50;4150197;28;19969;-65
2023/08/21 05:09:44;;;;;;;;;;;;;;;23.27;58.07;102032.69;4150287;28;19929;-65
2023/08/21 05:11:46;;;;;;;;;;;;;;;23.26;58.04;102036.34;4150267;28;19971;-65
2023/08/21 05:13:47;;;;;;;;;;;;;;;23.26;57.91;102028.28;4149648;28;19932;-65
2023/08/21 05:15:53;;;;;;;;;;;;;;;23.26;57.73;102030.13;4150132;28;20303;-65
2023/08/21 05:17:54;;;;;;;;;;;;;;;23.25;57.92;102029.25;4150389;28;19956;-65
2023/08/21 05:19:56;;;;;;;;;;;;;;;23.25;57.95;102033.78;4150411;28;20291;-65
2023/08/21 05:21:58;;;;;;;;;;;;;;;23.25;58.00;102031.09;4150095;28;19926;-65
2023/08/21 05:23:59;;;;;;;;;;;;;;;23.25;57.87;102034.63;4148529;28;20288;-65
2023/08/21 05:26:01;;;;;;;;;;;;;;;23.23;57.92;102031.22;4150090;28;19956;-65
2023/08/21 05:28:02;;;;;;;;;;;;;;;23.24;57.76;102035.59;4150292;28;19960;-66
2023/08/21 05:30:04;;;;;;;;;;;;;;;23.24;57.62;102034.72;4150019;28;19980;-65
2023/08/21 05:32:05;;;;;;;;;;;;;;;23.23;57.88;102036.56;4150132;28;19929;-65
2023/08/21 05:34:07;;;;;;;;;;;;;;;23.23;57.90;102031.22;4149239;28;19961;-64
2023/08/21 05:36:08;;;;;;;;;;;;;;;23.23;57.64;102044.63;4149621;28;19949;-65
2023/08/21 05:38:10;;;;;;;;;;;;;;;23.23;57.60;102038.38;4150101;28;19948;-65
2023/08/21 05:40:12;;;;;;;;;;;;;;;23.23;57.82;102035.69;4149979;28;19925;-65
2023/08/21 05:42:14;;;;;;;;;;;;;;;23.22;57.85;102042.91;4150037;28;20322;-65
2023/08/21 05:44:15;;;;;;;;;;;;;;;23.22;57.89;102042.03;4149190;28;19929;-65
2023/08/21 05:46:17;;;;;;;;;;;;;;;23.21;57.86;102046.53;4149890;28;20020;-65
2023/08/21 05:48:18;;;;;;;;;;;;;;;23.21;57.67;102048.34;4148463;28;19932;-65
2023/08/21 05:50:20;;;;;;;;;;;;;;;23.21;57.61;102042.97;4149760;28;20020;-65
2023/08/21 05:52:22;;;;;;;;;;;;;;;23.20;57.86;102046.66;4149202;28;19988;-66
2023/08/21 05:54:24;;;;;;;;;;;;;;;23.21;57.97;102053.72;4148625;28;19929;-65
2023/08/21 05:56:26;;;;;;;;;;;;;;;23.20;57.83;102046.66;4149655;28;20415;-65
2023/08/21 05:58:30;;;;;;;;;;;;;;;23.20;57.86;102047.50;4149741;28;19925;-65
2023/08/21 06:00:33;;;;;;;;;;;;;;;23.20;57.80;102055.56;4149589;28;19956;-64
2023/08/21 06:02:34;;;;;;;;;;;;;;;23.19;57.63;102048.47;4149478;28;19952;-65
2023/08/21 06:04:40;;;;;;;;;;;;;;;23.19;57.75;102053.84;4149007;28;19935;-65
2023/08/21 06:06:41;;;;;;;;;;;;;;;23.19;57.75;102053.00;4149311;28;20402;-64
2023/08/21 06:08:43;;;;;;;;;;;;;;;23.19;57.53;102053.00;4149557;28;19929;-65
2023/08/21 06:10:45;;;;;;;;;;;;;;;23.18;57.79;102057.47;4149713;28;19979;-64
2023/08/21 06:12:47;;;;;;;;;;;;;;;23.18;57.65;102054.78;4149050;28;19930;-64
2023/08/21 06:14:49;;;;;;;;;;;;;;;23.18;57.80;102057.47;4148745;28;19926;-64
2023/08/21 06:16:50;;;;;;;;;;;;;;;23.17;57.66;102061.13;4149581;28;19929;-64
2023/08/21 06:18:52;;;;;;;;;;;;;;;23.17;57.64;102061.13;4149442;28;19929;-63
2023/08/21 06:20:54;;;;;;;;;;;;;;;23.17;57.68;102053.06;4149065;28;19933;-64
2023/08/21 06:22:56;;;;;;;;;;;;;;;23.16;57.64;102061.19;4149394;28;19926;-65
2023/08/21 06:24:57;;;;;;;;;;;;;;;23.18;57.79;102064.69;4148627;28;20310;-64
2023/08/21 06:26:59;;;;;;;;;;;;;;;23.17;57.64;102060.28;4149307;28;19953;-65
2023/08/21 06:29:00;;;;;;;;;;;;;;;23.17;57.62;102066.50;4149280;28;19956;-64
2023/08/21 06:31:03;;;;;;;;;;;;;;;23.16;57.54;102064.75;4149264;28;19972;-64
2023/08/21 06:33:05;;;;;;;;;;;;;;;23.14;57.50;102064.00;4149118;28;19960;-65
2023/08/21 06:35:06;;;;;;;;;;;;;;;23.13;57.64;102065.81;4147917;28;19933;-63
2023/08/21 06:37:09;;;;;;;;;;;;;;;23.13;57.52;102057.75;4148993;28;19929;-64
2023/08/21 06:39:10;;;;;;;;;;;;;;;23.13;57.43;102056.91;4149111;28;19925;-65
2023/08/21 06:41:12;;;;;;;;;;;;;;;23.13;57.70;102059.59;4149079;28;19926;-64
2023/08/21 06:43:13;;;;;;;;;;;;;;;23.13;57.62;102054.22;4148698;28;19926;-64
2023/08/21 06:45:15;;;;;;;;;;;;;;;23.12;57.76;102056.06;4148301;28;19984;-65
2023/08/21 06:47:16;;;;;;;;;;;;;;;23.11;57.86;102058.81;4148960;28;19963;-64
2023/08/21 06:49:18;;;;;;;;;;;;;;;23.12;57.67;102060.53;4148525;28;19925;-64
2023/08/21 06:51:19;;;;;;;;;;;;;;;23.11;57.46;102064.19;4148936;28;19996;-64
2023/08/21 06:53:21;;;;;;;;;;;;;;;23.12;57.39;102066.78;4148775;28;19925;-64
2023/08/21 06:55:22;;;;;;;;;;;;;;;23.12;57.65;102071.28;4148047;28;20009;-64
2023/08/21 06:57:24;;;;;;;;;;;;;;;23.12;57.27;102069.47;4147492;28;19929;-65
2023/08/21 06:59:25;;;;;;;;;;;;;;;23.11;57.42;102070.44;4148725;28;19937;-64
2023/08/21 07:01:27;;;;;;;;;;;;;;;23.11;57.47;102083.84;4148721;28;19925;-64
2023/08/21 07:03:29;;;;;;;;;;;;;;;23.10;57.61;102068.72;4148153;28;19933;-64
2023/08/21 07:05:30;;;;;;;;;;;;;;;23.11;57.40;102070.44;4147695;28;19932;-64
2023/08/21 07:07:32;;;;;;;;;;;;;;;23.10;57.67;102075.91;4148676;28;20012;-64
2023/08/21 07:09:34;;;;;;;;;;;;;;;23.08;57.80;102072.47;4148515;28;19925;-64
2023/08/21 07:11:35;;;;;;;;;;;;;;;23.08;57.67;102065.25;4148554;28;19925;-64
2023/08/21 07:13:37;;;;;;;;;;;;;;;22.98;57.62;102051.59;4148321;28;19925;-64
2023/08/21 07:15:38;;;;;;;;;;;;;;;23.07;57.36;102060.00;4147766;28;20025;-64
2023/08/21 07:17:40;;;;;;;;;;;;;;;23.07;57.45;102063.53;4148028;28;19926;-64
2023/08/21 07:19:42;;;;;;;;;;;;;;;23.07;57.39;102066.22;4148542;28;19925;-64
2023/08/21 07:21:47;;;;;;;;;;;;;;;23.07;57.42;102071.59;4148253;28;19930;-63
2023/08/21 07:23:49;;;;;;;;;;;;;;;23.07;57.58;102068.91;4148140;28;20009;-64
2023/08/21 07:25:50;;;;;;;;;;;;;;;23.08;57.37;102067.94;4147734;28;19925;-65
2023/08/21 07:27:55;;;;;;;;;;;;;;;23.08;57.30;102067.09;4148359;28;19932;-64
2023/08/21 07:29:56;;;;;;;;;;;;;;;23.08;57.24;102073.31;4148412;28;19932;-64
2023/08/21 07:31:58;;;;;;;;;;;;;;;23.08;57.00;102081.34;4148426;28;19968;-64
2023/08/21 07:33:59;;;;;;;;;;;;;;;23.10;57.37;102081.28;4148095;28;20298;-64
2023/08/21 07:36:03;;;;;;;;;;;;;;;23.09;57.39;102080.41;4147838;28;19925;-64
2023/08/21 07:38:04;;;;;;;;;;;;;;;23.09;57.43;102080.41;4148164;28;20020;-64
2023/08/21 07:40:06;;;;;;;;;;;;;;;23.10;57.28;102084.81;4148237;28;19936;-64
2023/08/21 07:42:10;;;;;;;;;;;;;;;23.11;57.34;102086.53;4148459;28;19925;-64
2023/08/21 07:44:12;;;;;;;;;;;;;;;23.13;56.92;102089.09;4147403;28;19926;-64
2023/08/21 07:46:15;;;;;;;;;;;;;;;23.13;57.14;102099.84;4148066;28;19995;-65
2023/08/21 07:48:18;;;;;;;;;;;;;;;23.14;56.87;102099.72;4148009;28;19931;-64
2023/08/21 07:50:19;;;;;;;;;;;;;;;23.16;57.06;102093.41;4148094;28;19925;-64
2023/08/21 07:52:21;;;;;;;;;;;;;;;23.17;56.96;102095.16;4148254;28;19933;-63
2023/08/21 07:54:23;;;;;;;;;;;;;;;23.17;57.11;102090.63;4147632;28;19930;-64
2023/08/21 07:56:25;;;;;;;;;;;;;;;23.19;56.83;102093.25;4148018;28;19931;-63
2023/08/21 07:58:27;;;;;;;;;;;;;;;23.20;56.76;102094.97;4148185;28;19937;-64
2023/08/21 08:00:28;;;;;;;;;;;;;;;23.20;56.65;102098.50;4148028;28;20358;-65
2023/08/21 08:02:30;;;;;;;;;;;;;;;23.21;56.71;102094.84;4147761;28;19971;-64
2023/08/21 08:04:32;;;;;;;;;;;;;;;23.21;56.58;102089.50;4147381;28;20043;-64
2023/08/21 08:06:33;;;;;;;;;;;;;;;23.22;56.69;102093.91;4148011;28;19925;-64
2023/08/21 08:08:35;;;;;;;;;;;;;;;23.23;56.83;102082.19;4148082;28;19933;-64
2023/08/21 08:10:37;;;;;;;;;;;;;;;23.23;56.65;102087.56;4148129;28;20016;-64
2023/08/21 08:12:41;;;;;;;;;;;;;;;23.25;56.68;102090.16;4147753;28;19925;-64
2023/08/21 08:14:42;;;;;;;;;;;;;;;23.26;56.54;102084.66;4147373;28;19949;-64
2023/08/21 08:16:44;;;;;;;;;;;;;;;23.27;56.14;102089.06;4148722;28;20025;-63
2023/08/21 08:18:45;;;;;;;;;;;;;;;23.28;55.85;102095.28;4151095;28;19940;-64
2023/08/21 08:20:47;;;;;;;;;;;;;;;23.29;56.01;102088.97;4151393;28;19937;-64
2023/08/21 08:22:49;;;;;;;;;;;;;;;23.31;55.89;102091.53;4150986;28;20020;-65
2023/08/21 08:24:50;;;;;;;;;;;;;;;23.30;55.61;102085.31;4150399;28;20007;-64
2023/08/21 08:26:52;;;;;;;;;;;;;;;23.31;56.19;102095.09;4150988;28;19926;-64
2023/08/21 08:28:54;;;;;;;;;;;;;;;23.31;55.90;102091.53;4151021;28;19925;-64
2023/08/21 08:30:55;;;;;;;;;;;;;;;23.32;55.34;102090.56;4150549;28;19933;-64
2023/08/21 08:32:57;;;;;;;;;;;;;;;23.32;55.41;102090.56;4151060;28;20303;-64
2023/08/21 08:34:59;;;;;;;;;;;;;;;23.32;55.21;102093.25;4150382;28;19925;-64
2023/08/21 08:37:00;;;;;;;;;;;;;;;23.33;55.49;102084.25;4150954;28;19926;-63
2023/08/21 08:39:02;;;;;;;;;;;;;;;23.33;55.39;102093.16;4150795;28;20422;-63
2023/08/21 08:41:07;;;;;;;;;;;;;;;23.34;55.51;102084.13;4150823;28;19948;-64
2023/08/21 08:43:08;;;;;;;;;;;;;;;23.34;55.16;102084.13;4150867;28;19968;-65
2023/08/21 08:45:12;;;;;;;;;;;;;;;23.34;55.14;102070.72;4149835;28;19961;-64
2023/08/21 08:47:14;;;;;;;;;;;;;;;23.35;55.39;102072.44;4150852;28;20330;-64
2023/08/21 08:49:15;;;;;;;;;;;;;;;23.36;54.87;102073.31;4150547;28;19929;-64
2023/08/21 08:51:19;;;;;;;;;;;;;;;23.36;55.06;102076.00;4150709;28;19925;-65
2023/08/21 08:53:21;;;;;;;;;;;;;;;23.36;54.93;102070.63;4150696;28;19957;-64
2023/08/21 08:55:23;;;;;;;;;;;;;;;23.36;55.14;102073.31;4149976;28;20413;-65
2023/08/21 08:57:25;;;;;;;;;;;;;;;23.39;55.10;102075.75;4150909;28;20012;-64
2023/08/21 08:59:29;;;;;;;;;;;;;;;23.39;55.08;102071.28;4150136;28;20298;-64
2023/08/21 09:01:30;;;;;;;;;;;;;;;23.39;54.85;102071.28;4150648;28;19972;-65
2023/08/21 09:03:32;;;;;;;;;;;;;;;23.40;54.96;102070.31;4150540;28;19972;-65
2023/08/21 09:05:34;;;;;;;;;;;;;;;23.40;55.08;102072.13;4149751;28;19925;-63
2023/08/21 09:07:35;;;;;;;;;;;;;;;23.41;54.61;102076.53;4150282;28;19925;-64
2023/08/21 09:09:41;;;;;;;;;;;;;;;23.43;54.80;102074.59;4150631;28;19929;-63
2023/08/21 09:11:43;;;;;;;;;;;;;;;23.43;54.82;102071.91;4150298;28;19926;-64
2023/08/21 09:13:45;;;;;;;;;;;;;;;23.42;54.67;102065.69;4149883;28;19957;-65
2023/08/21 09:15:48;;;;;;;;;;;;;;;23.43;54.57;102067.41;4149513;28;19929;-64
2023/08/21 09:17:53;;;;;;;;;;;;;;;23.44;54.16;102066.44;4150515;28;19925;-65
2023/08/21 09:19:54;;;;;;;;;;;;;;;23.45;54.89;102065.47;4149224;28;19930;-65
2023/08/21 09:21:56;;;;;;;;;;;;;;;23.45;54.75;102068.16;4149242;28;19947;-64
2023/08/21 09:23:58;;;;;;;;;;;;;;;23.47;55.09;102064.50;4150340;28;19936;-63
2023/08/21 09:26:01;;;;;;;;;;;;;;;23.47;54.56;102064.50;4149374;28;19929;-64
2023/08/21 09:28:07;;;;;;;;;;;;;;;23.48;54.88;102063.56;4148831;28;20294;-63
2023/08/21 09:30:09;;;;;;;;;;;;;;;23.47;54.50;102061.84;4150308;28;19932;-64
2023/08/21 09:32:11;;;;;;;;;;;;;;;23.48;54.85;102061.72;4150193;28;19932;-65
2023/08/21 09:34:12;;;;;;;;;;;;;;;23.48;54.61;102058.19;4150067;28;19932;-65
2023/08/21 09:36:16;;;;;;;;;;;;;;;23.49;54.69;102049.13;4149553;28;19926;-64
2023/08/21 09:38:19;;;;;;;;;;;;;;;23.48;54.48;102061.72;4150113;28;19971;-64
2023/08/21 09:40:21;;;;;;;;;;;;;;;23.49;54.36;102058.06;4149899;28;19926;-64
2023/08/21 09:42:24;;;;;;;;;;;;;;;23.49;54.60;102050.00;4150057;28;20414;-65
2023/08/21 09:44:25;;;;;;;;;;;;;;;23.50;54.62;102048.19;4149498;28;20291;-65
2023/08/21 09:46:28;;;;;;;;;;;;;;;23.50;54.48;102046.38;4149521;28;20295;-64
2023/08/21 09:48:30;;;;;;;;;;;;;;;23.51;54.85;102050.75;4149739;28;19925;-64
2023/08/21 09:50:32;;;;;;;;;;;;;;;23.51;54.67;102047.22;4150062;28;20378;-64
2023/08/21 09:52:35;;;;;;;;;;;;;;;23.51;54.47;102048.06;4149763;28;20405;-64
2023/08/21 09:54:38;;;;;;;;;;;;;;;23.51;54.50;102041.84;4149367;28;19926;-64
2023/08/21 09:56:40;;;;;;;;;;;;;;;23.52;54.03;102043.56;4149503;28;19926;-64
2023/08/21 09:58:42;;;;;;;;;;;;;;;23.53;54.17;102047.97;4148154;28;19953;-64
2023/08/21 10:00:44;;;;;;;;;;;;;;;23.52;54.33;102044.41;4149911;28;20091;-64
2023/08/21 10:02:49;;;;;;;;;;;;;;;23.54;54.47;102041.66;4149410;28;19925;-64
2023/08/21 10:04:52;;;;;;;;;;;;;;;23.52;54.39;102044.41;4149065;28;20394;-65
2023/08/21 10:06:55;;;;;;;;;;;;;;;23.54;54.25;102047.88;4149582;28;19933;-64
2023/08/21 10:08:58;;;;;;;;;;;;;;;23.54;54.38;102045.19;4149495;28;19949;-64
2023/08/21 10:11:00;;;;;;;;;;;;;;;23.55;54.19;102041.53;4149458;28;19925;-65
2023/08/21 10:13:06;;;;;;;;;;;;;;;23.55;54.43;102041.53;4148792;28;19967;-64
2023/08/21 10:15:11;;;;;;;;;;;;;;;23.56;54.30;102043.25;4148698;28;19929;-64
2023/08/21 10:17:13;;;;;;;;;;;;;;;23.57;54.53;102042.28;4149448;28;19932;-65
2023/08/21 10:19:14;;;;;;;;;;;;;;;23.57;54.42;102042.28;4149346;28;19929;-64
2023/08/21 10:21:17;;;;;;;;;;;;;;;23.58;54.26;102033.25;4147889;28;19984;-64
2023/08/21 10:23:29;;;;;;;;;;;;;;;23.58;54.47;102029.72;4149333;28;19975;-64
2023/08/21 10:25:30;;;;;;;;;;;;;;;23.59;54.00;102028.75;4148384;28;20323;-63
2023/08/21 10:27:33;;;;;;;;;;;;;;;23.59;54.54;102028.75;4148907;28;19933;-64